createdAt,value
2023-03-11T00:00:37.778Z,-0.19
2023-03-11T00:03:06.502Z,-0.19
2023-03-11T00:05:36.224Z,-0.26
2023-03-11T00:08:04.246Z,-0.30
2023-03-11T00:10:42.342Z,-0.27
2023-03-11T00:13:12.000Z,-0.31
2023-03-11T00:15:40.212Z,-0.30
2023-03-11T00:18:07.169Z,-0.30
2023-03-11T00:20:36.920Z,-0.29
2023-03-11T00:23:06.379Z,-0.29
2023-03-11T00:25:36.345Z,-0.35
2023-03-11T00:28:03.894Z,-0.40
2023-03-11T00:30:30.690Z,-0.45
2023-03-11T00:32:59.282Z,-0.53
2023-03-11T00:35:28.781Z,-0.55
2023-03-11T00:37:58.847Z,-0.52
2023-03-11T00:40:27.623Z,-0.58
2023-03-11T00:42:54.791Z,-0.60
2023-03-11T00:45:22.009Z,-0.72
2023-03-11T00:47:48.869Z,-0.79
2023-03-11T00:50:28.283Z,-0.83
2023-03-11T00:52:55.712Z,-0.84
2023-03-11T00:55:25.600Z,-0.93
2023-03-11T00:57:55.306Z,-0.93
2023-03-11T01:00:25.583Z,-1.03
2023-03-11T01:02:54.071Z,-1.08
2023-03-11T01:05:25.922Z,-1.09
2023-03-11T01:07:52.744Z,-1.04
2023-03-11T01:10:20.518Z,-1.08
2023-03-11T01:12:47.324Z,-0.98
2023-03-11T01:15:22.534Z,-0.95
2023-03-11T01:17:49.246Z,-0.93
2023-03-11T01:20:16.121Z,-0.86
2023-03-11T01:22:44.944Z,-0.79
2023-03-11T01:25:16.197Z,-0.70
2023-03-11T01:27:42.824Z,-0.64
2023-03-11T01:30:12.754Z,-0.60
2023-03-11T01:32:39.504Z,-0.66
2023-03-11T01:35:07.055Z,-0.70
2023-03-11T01:37:33.792Z,-0.64
2023-03-11T01:40:00.495Z,-0.53
2023-03-11T01:42:27.252Z,-0.42
2023-03-11T01:44:55.591Z,-0.38
2023-03-11T01:47:35.747Z,-0.29
2023-03-11T01:50:05.389Z,-0.18
2023-03-11T01:52:32.305Z,-0.15
2023-03-11T01:54:59.154Z,-0.13
2023-03-11T01:57:25.922Z,-0.11
2023-03-11T01:59:57.841Z,-0.12
2023-03-11T02:02:50.308Z,-0.05
2023-03-11T02:05:20.955Z,0.00
2023-03-11T02:07:49.161Z,0.02
2023-03-11T02:10:18.139Z,-0.02
2023-03-11T02:12:46.655Z,-0.04
2023-03-11T02:15:22.215Z,-0.09
2023-03-11T02:17:48.987Z,-0.13
2023-03-11T02:20:40.573Z,-0.17
2023-03-11T02:23:14.224Z,-0.21
2023-03-11T02:25:50.876Z,-0.28
2023-03-11T02:28:20.665Z,-0.26
2023-03-11T02:30:48.483Z,-0.35
2023-03-11T02:33:18.651Z,-0.32
2023-03-11T02:35:46.896Z,-0.37
2023-03-11T02:38:14.458Z,-0.39
2023-03-11T02:41:00.160Z,-0.40
2023-03-11T02:43:43.546Z,-0.21
2023-03-11T02:46:14.300Z,-0.26
2023-03-11T02:48:42.149Z,-0.29
2023-03-11T02:51:09.270Z,-0.45
2023-03-11T02:53:48.247Z,-0.50
2023-03-11T02:56:15.678Z,-0.44
2023-03-11T02:58:42.947Z,-0.43
2023-03-11T03:01:10.941Z,-0.33
2023-03-11T03:03:39.178Z,-0.36
2023-03-11T03:06:06.883Z,-0.29
2023-03-11T03:08:33.788Z,-0.28
2023-03-11T03:11:01.192Z,-0.25
2023-03-11T03:13:28.088Z,-0.16
2023-03-11T03:15:56.256Z,-0.19
2023-03-11T03:18:23.066Z,-0.19
2023-03-11T03:20:51.100Z,-0.16
2023-03-11T03:23:18.566Z,-0.19
2023-03-11T03:25:46.287Z,-0.14
2023-03-11T03:28:13.927Z,-0.19
2023-03-11T03:30:44.541Z,-0.23
2023-03-11T03:33:12.652Z,-0.11
2023-03-11T03:35:44.749Z,-0.16
2023-03-11T03:38:19.643Z,-0.22
2023-03-11T03:40:48.009Z,-0.16
2023-03-11T03:43:17.308Z,-0.37
2023-03-11T03:45:45.807Z,-0.27
2023-03-11T03:48:12.553Z,-0.34
2023-03-11T03:50:43.430Z,-0.33
2023-03-11T03:53:13.493Z,-0.13
2023-03-11T03:55:40.867Z,-0.38
2023-03-11T03:58:07.872Z,-0.41
2023-03-11T04:00:36.446Z,-0.40
2023-03-11T04:03:04.205Z,-0.43
2023-03-11T04:05:39.198Z,-0.52
2023-03-11T04:08:06.389Z,-0.51
2023-03-11T04:10:33.482Z,-0.55
2023-03-11T04:13:00.673Z,-0.65
2023-03-11T04:15:28.250Z,-0.71
2023-03-11T04:17:55.347Z,-0.80
2023-03-11T04:20:22.941Z,-0.87
2023-03-11T04:22:51.913Z,-0.92
2023-03-11T04:25:22.362Z,-0.92
2023-03-11T04:27:50.177Z,-0.98
2023-03-11T04:30:17.521Z,-0.99
2023-03-11T04:32:47.381Z,-1.02
2023-03-11T04:35:14.221Z,-1.03
2023-03-11T04:37:40.992Z,-1.01
2023-03-11T04:40:09.175Z,-1.08
2023-03-11T04:42:35.886Z,-1.14
2023-03-11T04:45:03.069Z,-1.15
2023-03-11T04:47:31.452Z,-1.12
2023-03-11T04:49:58.825Z,-1.09
2023-03-11T04:52:25.920Z,-1.08
2023-03-11T04:54:53.062Z,-1.04
2023-03-11T04:57:19.972Z,-1.07
2023-03-11T04:59:47.638Z,-1.07
2023-03-11T05:02:15.221Z,-1.04
2023-03-11T05:04:50.381Z,-1.05
2023-03-11T05:07:17.301Z,-1.04
2023-03-11T05:09:44.999Z,-1.03
2023-03-11T05:12:12.621Z,-1.00
2023-03-11T05:14:40.906Z,-1.03
2023-03-11T05:17:08.378Z,-1.07
2023-03-11T05:19:35.488Z,-1.04
2023-03-11T05:22:11.804Z,-1.07
2023-03-11T05:24:38.890Z,-1.11
2023-03-11T05:27:06.018Z,-1.11
2023-03-11T05:29:34.178Z,-1.16
2023-03-11T05:32:01.088Z,-1.20
2023-03-11T05:34:28.267Z,-1.21
2023-03-11T05:36:55.483Z,-1.25
2023-03-11T05:39:23.211Z,-1.22
2023-03-11T05:41:50.282Z,-1.16
2023-03-11T05:44:17.446Z,-1.20
2023-03-11T05:46:44.262Z,-1.17
2023-03-11T05:49:11.052Z,-1.17
2023-03-11T05:51:38.233Z,-1.15
2023-03-11T05:54:07.302Z,-1.16
2023-03-11T05:56:38.001Z,-1.16
2023-03-11T05:59:05.400Z,-1.18
2023-03-11T06:01:35.367Z,-1.16
2023-03-11T06:04:02.789Z,-1.16
2023-03-11T06:06:29.778Z,-1.16
2023-03-11T06:08:56.839Z,-1.20
2023-03-11T06:11:27.251Z,-1.25
2023-03-11T06:13:56.020Z,-1.26
2023-03-11T06:16:25.363Z,-1.33
2023-03-11T06:18:53.388Z,-1.31
2023-03-11T06:21:23.086Z,-1.38
2023-03-11T06:23:50.687Z,-1.37
2023-03-11T06:26:20.331Z,-1.51
2023-03-11T06:28:48.448Z,-1.54
2023-03-11T06:31:29.233Z,-1.53
2023-03-11T06:34:02.706Z,-1.58
2023-03-11T06:36:29.533Z,-1.60
2023-03-11T06:38:56.300Z,-1.62
2023-03-11T06:41:25.753Z,-1.60
2023-03-11T06:43:52.632Z,-1.68
2023-03-11T06:46:22.384Z,-1.65
2023-03-11T06:48:52.404Z,-1.66
2023-03-11T06:51:21.828Z,-1.69
2023-03-11T06:53:50.438Z,-1.68
2023-03-11T06:56:18.231Z,-1.63
2023-03-11T06:58:49.430Z,-1.59
2023-03-11T07:01:22.728Z,-1.52
2023-03-11T07:03:51.334Z,-1.47
2023-03-11T07:06:22.727Z,-1.37
2023-03-11T07:08:53.132Z,-1.21
2023-03-11T07:11:25.301Z,-1.08
2023-03-11T07:13:55.495Z,-1.11
2023-03-11T07:16:28.090Z,-1.11
2023-03-11T07:19:03.330Z,-1.09
2023-03-11T07:21:31.834Z,-0.76
2023-03-11T07:24:01.171Z,-0.45
2023-03-11T07:26:29.565Z,-0.47
2023-03-11T07:28:57.715Z,-0.53
2023-03-11T07:31:27.660Z,-0.65
2023-03-11T07:33:54.408Z,-0.62
2023-03-11T07:36:23.817Z,-0.52
2023-03-11T07:38:58.386Z,-0.55
2023-03-11T07:41:26.470Z,-0.31
2023-03-11T07:44:01.480Z,-0.35
2023-03-11T07:46:30.694Z,0.59
2023-03-11T07:48:57.361Z,1.63
2023-03-11T07:51:30.291Z,1.95
2023-03-11T07:53:58.645Z,2.92
2023-03-11T07:56:27.469Z,3.30
2023-03-11T07:58:54.216Z,2.85
2023-03-11T08:01:23.310Z,3.45
2023-03-11T08:03:52.980Z,4.11
2023-03-11T08:06:25.732Z,4.87
2023-03-11T08:08:52.798Z,5.04
2023-03-11T08:11:20.957Z,5.47
2023-03-11T08:13:48.709Z,5.86
2023-03-11T08:16:18.031Z,5.85
2023-03-11T08:18:46.045Z,5.58
2023-03-11T08:21:15.273Z,4.95
2023-03-11T08:23:43.203Z,5.36
2023-03-11T08:26:14.526Z,5.54
2023-03-11T08:28:42.660Z,5.27
2023-03-11T08:31:17.800Z,5.62
2023-03-11T08:33:46.467Z,5.93
2023-03-11T08:36:13.470Z,5.98
2023-03-11T08:38:40.439Z,5.95
2023-03-11T08:41:07.389Z,6.18
2023-03-11T08:43:34.516Z,6.55
2023-03-11T08:46:03.512Z,6.64
2023-03-11T08:48:30.467Z,5.77
2023-03-11T08:50:57.321Z,6.25
2023-03-11T08:53:24.831Z,6.80
2023-03-11T08:55:52.449Z,6.45
2023-03-11T08:58:20.108Z,5.70
2023-03-11T09:00:47.122Z,6.86
2023-03-11T09:03:14.110Z,6.74
2023-03-11T09:05:41.152Z,6.99
2023-03-11T09:08:08.281Z,6.66
2023-03-11T09:10:35.105Z,6.33
2023-03-11T09:13:01.932Z,5.95
2023-03-11T09:15:28.774Z,5.39
2023-03-11T09:17:55.929Z,6.11
2023-03-11T09:20:24.965Z,7.22
2023-03-11T09:22:51.579Z,6.12
2023-03-11T09:25:18.304Z,6.67
2023-03-11T09:27:45.104Z,6.64
2023-03-11T09:30:12.687Z,6.97
2023-03-11T09:32:39.446Z,6.69
2023-03-11T09:35:06.584Z,6.83
2023-03-11T09:37:33.266Z,7.33
2023-03-11T09:40:00.041Z,6.94
2023-03-11T09:42:33.747Z,7.04
2023-03-11T09:45:14.881Z,7.38
2023-03-11T09:48:04.326Z,7.53
2023-03-11T09:50:46.038Z,7.09
2023-03-11T09:53:32.162Z,6.81
2023-03-11T09:56:00.544Z,7.37
2023-03-11T09:58:50.769Z,7.03
2023-03-11T10:01:24.215Z,6.66
2023-03-11T10:03:55.105Z,6.90
2023-03-11T10:06:28.675Z,7.14
2023-03-11T10:09:13.627Z,6.83
2023-03-11T10:11:45.284Z,6.69
2023-03-11T10:14:54.799Z,7.67
2023-03-11T10:17:33.561Z,7.06
2023-03-11T10:20:07.504Z,6.88
2023-03-11T10:22:56.219Z,6.53
2023-03-11T10:25:35.233Z,7.20
2023-03-11T10:28:09.334Z,6.99
2023-03-11T10:30:41.149Z,7.21
2023-03-11T10:33:21.453Z,6.23
2023-03-11T10:35:53.511Z,6.66
2023-03-11T10:38:37.532Z,7.76
2023-03-11T10:41:12.772Z,8.69
2023-03-11T10:43:49.750Z,7.83
2023-03-11T10:46:24.739Z,7.25
2023-03-11T10:48:51.636Z,7.42
2023-03-11T10:51:36.403Z,7.01
2023-03-11T10:54:04.363Z,6.50
2023-03-11T10:56:36.374Z,6.13
2023-03-11T10:59:05.962Z,6.84
2023-03-11T11:01:33.170Z,6.70
2023-03-11T11:04:01.744Z,6.37
2023-03-11T11:06:39.827Z,6.59
2023-03-11T11:09:21.937Z,6.61
2023-03-11T11:12:27.235Z,7.13
2023-03-11T11:14:55.386Z,7.39
2023-03-11T11:17:28.776Z,7.90
2023-03-11T11:19:58.134Z,6.47
2023-03-11T11:22:26.201Z,6.47
2023-03-11T11:24:56.181Z,6.36
2023-03-11T11:27:24.183Z,6.25
2023-03-11T11:30:09.029Z,6.82
2023-03-11T11:32:36.578Z,7.04
2023-03-11T11:35:12.275Z,6.28
2023-03-11T11:37:43.066Z,5.78
2023-03-11T11:40:16.608Z,6.42
2023-03-11T11:42:54.899Z,6.17
2023-03-11T11:45:42.600Z,6.54
2023-03-11T11:48:31.688Z,6.42
2023-03-11T11:51:02.445Z,6.16
2023-03-11T11:53:52.520Z,5.95
2023-03-11T11:56:19.343Z,5.96
2023-03-11T11:58:46.028Z,5.75
2023-03-11T12:01:57.055Z,6.15
2023-03-11T12:04:45.044Z,5.71
2023-03-11T12:07:20.899Z,5.70
2023-03-11T12:10:23.852Z,5.71
2023-03-11T12:13:15.698Z,5.79
2023-03-11T12:15:45.520Z,5.67
2023-03-11T12:18:21.262Z,5.91
2023-03-11T12:20:53.776Z,5.59
2023-03-11T12:23:50.953Z,5.70
2023-03-11T12:26:22.156Z,5.56
2023-03-11T12:28:53.156Z,5.27
2023-03-11T12:31:22.456Z,5.39
2023-03-11T12:33:55.423Z,5.52
2023-03-11T12:36:42.285Z,4.76
2023-03-11T12:39:25.057Z,4.90
2023-03-11T12:42:17.998Z,5.39
2023-03-11T12:44:46.176Z,5.20
2023-03-11T12:47:23.893Z,5.47
2023-03-11T12:50:35.443Z,5.42
2023-03-11T12:53:02.164Z,5.33
2023-03-11T12:55:34.018Z,5.02
2023-03-11T12:58:29.802Z,4.77
2023-03-11T13:01:15.154Z,4.95
2023-03-11T13:04:01.185Z,5.06
2023-03-11T13:06:48.467Z,5.11
2023-03-11T13:09:17.065Z,4.94
2023-03-11T13:11:46.604Z,4.80
2023-03-11T13:14:22.399Z,4.98
2023-03-11T13:16:49.812Z,4.78
2023-03-11T13:19:34.329Z,4.68
2023-03-11T13:22:03.003Z,4.68
2023-03-11T13:24:29.737Z,4.56
2023-03-11T13:26:59.531Z,4.36
2023-03-11T13:30:03.880Z,4.44
2023-03-11T13:32:54.227Z,4.41
2023-03-11T13:36:13.144Z,4.50
2023-03-11T13:39:00.864Z,4.39
2023-03-11T13:41:35.092Z,4.44
2023-03-11T13:44:28.627Z,4.09
2023-03-11T13:47:02.835Z,4.11
2023-03-11T13:49:41.459Z,4.34
2023-03-11T13:52:14.427Z,4.12
2023-03-11T13:54:48.226Z,4.28
2023-03-11T13:57:28.498Z,4.28
2023-03-11T13:59:57.282Z,4.27
2023-03-11T14:02:26.478Z,4.34
2023-03-11T14:04:58.191Z,4.38
2023-03-11T14:07:27.635Z,4.14
2023-03-11T14:10:30.201Z,4.39
2023-03-11T14:13:17.795Z,4.40
2023-03-11T14:15:51.706Z,4.11
2023-03-11T14:18:34.259Z,3.99
2023-03-11T14:21:02.771Z,3.89
2023-03-11T14:23:41.263Z,4.00
2023-03-11T14:26:13.468Z,4.02
2023-03-11T14:28:45.165Z,3.89
2023-03-11T14:31:30.391Z,3.88
2023-03-11T14:34:10.300Z,3.93
2023-03-11T14:36:44.290Z,3.77
2023-03-11T14:39:32.868Z,3.61
2023-03-11T14:42:20.705Z,3.76
2023-03-11T14:44:58.854Z,3.51
2023-03-11T14:47:36.737Z,3.58
2023-03-11T14:50:14.568Z,3.64
2023-03-11T14:52:49.479Z,3.65
2023-03-11T14:55:22.201Z,3.50
2023-03-11T14:58:04.400Z,3.51
2023-03-11T15:00:37.126Z,3.46
2023-03-11T15:03:12.627Z,3.28
2023-03-11T15:05:48.801Z,3.40
2023-03-11T15:08:22.082Z,3.30
2023-03-11T15:11:04.164Z,3.30
2023-03-11T15:13:31.494Z,3.34
2023-03-11T15:16:00.241Z,3.24
2023-03-11T15:18:33.396Z,3.26
2023-03-11T15:21:17.808Z,3.22
2023-03-11T15:23:56.373Z,3.01
2023-03-11T15:26:29.944Z,3.16
2023-03-11T15:29:02.331Z,3.26
2023-03-11T15:31:35.603Z,3.22
2023-03-11T15:34:19.018Z,3.17
2023-03-11T15:36:55.576Z,3.18
2023-03-11T15:39:47.352Z,3.12
2023-03-11T15:42:22.945Z,3.08
2023-03-11T15:45:12.034Z,3.20
2023-03-11T15:47:39.811Z,3.01
2023-03-11T15:50:24.528Z,3.21
2023-03-11T15:52:55.543Z,3.09
2023-03-11T15:55:23.689Z,3.08
2023-03-11T15:57:55.363Z,2.95
2023-03-11T16:00:24.198Z,2.98
2023-03-11T16:02:51.097Z,2.95
2023-03-11T16:05:20.837Z,3.00
2023-03-11T16:07:47.805Z,3.06
2023-03-11T16:10:17.796Z,2.93
2023-03-11T16:12:44.563Z,2.90
2023-03-11T16:15:30.163Z,2.89
2023-03-11T16:17:58.933Z,2.90
2023-03-11T16:20:28.710Z,2.98
2023-03-11T16:22:58.591Z,2.98
2023-03-11T16:25:39.709Z,2.93
2023-03-11T16:28:07.435Z,2.89
2023-03-11T16:30:35.093Z,2.94
2023-03-11T16:33:04.632Z,2.82
2023-03-11T16:35:32.069Z,2.77
2023-03-11T16:37:58.830Z,2.89
2023-03-11T16:40:28.925Z,2.86
2023-03-11T16:43:07.730Z,2.91
2023-03-11T16:45:34.882Z,3.00
2023-03-11T16:48:02.268Z,2.86
2023-03-11T16:50:29.386Z,2.91
2023-03-11T16:52:57.140Z,3.02
2023-03-11T16:55:25.542Z,2.87
2023-03-11T16:57:52.309Z,2.81
2023-03-11T17:00:19.279Z,2.72
2023-03-11T17:02:46.278Z,2.64
2023-03-11T17:05:13.109Z,2.68
2023-03-11T17:07:40.327Z,2.63
2023-03-11T17:10:09.161Z,2.59
2023-03-11T17:12:36.111Z,2.52
2023-03-11T17:15:05.139Z,2.49
2023-03-11T17:17:31.998Z,2.43
2023-03-11T17:19:58.800Z,2.33
2023-03-11T17:22:25.516Z,2.41
2023-03-11T17:24:52.250Z,2.33
2023-03-11T17:27:19.044Z,2.32
2023-03-11T17:29:45.836Z,2.30
2023-03-11T17:32:17.352Z,2.28
2023-03-11T17:34:44.379Z,2.31
2023-03-11T17:37:11.002Z,2.34
2023-03-11T17:39:37.713Z,2.37
2023-03-11T17:42:04.536Z,2.37
2023-03-11T17:44:44.591Z,2.34
2023-03-11T17:47:19.770Z,2.42
2023-03-11T17:49:48.121Z,2.29
2023-03-11T17:52:14.911Z,2.28
2023-03-11T17:54:41.677Z,2.25
2023-03-11T17:57:08.413Z,2.26
2023-03-11T17:59:35.210Z,2.28
2023-03-11T18:02:01.989Z,2.35
2023-03-11T18:04:29.078Z,2.29
2023-03-11T18:06:55.893Z,2.28
2023-03-11T18:09:22.663Z,2.20
2023-03-11T18:11:49.695Z,2.22
2023-03-11T18:14:16.429Z,2.23
2023-03-11T18:16:43.213Z,2.23
2023-03-11T18:19:09.887Z,2.37
2023-03-11T18:21:36.588Z,2.39
2023-03-11T18:24:03.368Z,2.37
2023-03-11T18:26:30.744Z,2.30
2023-03-11T18:28:59.169Z,2.37
2023-03-11T18:31:27.815Z,2.43
2023-03-11T18:34:00.542Z,2.52
2023-03-11T18:36:29.848Z,2.47
2023-03-11T18:38:57.954Z,2.39
2023-03-11T18:41:25.918Z,2.39
2023-03-11T18:43:59.272Z,2.45
2023-03-11T18:46:31.720Z,2.40
2023-03-11T18:49:00.117Z,2.33
2023-03-11T18:51:28.622Z,2.40
2023-03-11T18:53:55.781Z,2.42
2023-03-11T18:56:22.473Z,2.38
2023-03-11T18:58:49.127Z,2.39
2023-03-11T19:01:18.759Z,2.42
2023-03-11T19:03:50.392Z,2.38
2023-03-11T19:06:17.454Z,2.37
2023-03-11T19:08:44.499Z,2.39
2023-03-11T19:11:15.268Z,2.41
2023-03-11T19:13:47.152Z,2.32
2023-03-11T19:16:16.722Z,2.23
2023-03-11T19:18:43.503Z,2.23
2023-03-11T19:21:13.536Z,2.21
2023-03-11T19:23:40.447Z,2.23
2023-03-11T19:26:07.632Z,2.23
2023-03-11T19:28:34.437Z,2.25
2023-03-11T19:31:02.038Z,2.27
2023-03-11T19:33:29.417Z,2.27
2023-03-11T19:36:01.323Z,2.34
2023-03-11T19:38:28.979Z,2.33
2023-03-11T19:41:07.835Z,2.30
2023-03-11T19:43:35.764Z,2.30
2023-03-11T19:46:03.916Z,2.34
2023-03-11T19:48:31.321Z,2.32
2023-03-11T19:50:58.611Z,2.35
2023-03-11T19:53:26.140Z,2.38
2023-03-11T19:55:55.460Z,2.40
2023-03-11T19:58:24.010Z,2.42
2023-03-11T20:00:51.402Z,2.42
2023-03-11T20:03:19.213Z,2.47
2023-03-11T20:05:46.841Z,2.49
2023-03-11T20:08:16.451Z,2.50
2023-03-11T20:10:46.498Z,2.53
2023-03-11T20:13:14.217Z,2.51
2023-03-11T20:15:41.136Z,2.58
2023-03-11T20:18:08.269Z,2.59
2023-03-11T20:20:37.805Z,2.60
2023-03-11T20:23:04.569Z,2.67
2023-03-11T20:25:32.513Z,2.66
2023-03-11T20:28:00.482Z,2.65
2023-03-11T20:30:28.308Z,2.66
2023-03-11T20:32:55.171Z,2.72
2023-03-11T20:35:22.598Z,2.74
2023-03-11T20:37:49.800Z,2.71
2023-03-11T20:40:18.385Z,2.77
2023-03-11T20:42:47.343Z,2.69
2023-03-11T20:45:21.730Z,2.74
2023-03-11T20:47:50.438Z,2.73
2023-03-11T20:50:17.397Z,2.73
2023-03-11T20:52:44.126Z,2.74
2023-03-11T20:55:11.211Z,2.77
2023-03-11T20:57:38.758Z,2.72
2023-03-11T21:00:11.197Z,2.77
2023-03-11T21:02:39.801Z,2.80
2023-03-11T21:05:08.506Z,2.80
2023-03-11T21:07:35.874Z,2.76
2023-03-11T21:10:05.502Z,2.75
2023-03-11T21:12:32.391Z,2.71
2023-03-11T21:14:59.175Z,2.74
2023-03-11T21:17:26.220Z,2.77
2023-03-11T21:19:53.007Z,2.80
2023-03-11T21:22:20.059Z,2.85
2023-03-11T21:24:51.859Z,2.81
2023-03-11T21:27:20.923Z,2.84
2023-03-11T21:29:47.783Z,2.88
2023-03-11T21:32:14.676Z,2.90
2023-03-11T21:34:41.508Z,2.86
2023-03-11T21:37:08.260Z,2.92
2023-03-11T21:39:34.984Z,2.90
2023-03-11T21:42:02.698Z,2.92
2023-03-11T21:44:29.563Z,2.94
2023-03-11T21:46:56.529Z,2.85
2023-03-11T21:49:23.974Z,2.87
2023-03-11T21:51:50.870Z,2.85
2023-03-11T21:54:17.581Z,2.86
2023-03-11T21:56:44.308Z,2.85
2023-03-11T21:59:10.921Z,2.89
2023-03-11T22:01:37.862Z,2.94
2023-03-11T22:04:04.960Z,2.94
2023-03-11T22:06:33.520Z,3.02
2023-03-11T22:09:01.371Z,3.01
2023-03-11T22:11:28.612Z,3.03
2023-03-11T22:13:57.301Z,3.02
2023-03-11T22:16:25.106Z,3.03
2023-03-11T22:18:52.230Z,3.10
2023-03-11T22:21:20.854Z,3.08
2023-03-11T22:23:48.149Z,3.09
2023-03-11T22:26:16.010Z,3.14
2023-03-11T22:28:42.779Z,3.15
2023-03-11T22:31:12.077Z,3.14
2023-03-11T22:33:38.767Z,3.13
2023-03-11T22:36:06.185Z,3.16
2023-03-11T22:38:34.254Z,3.13
2023-03-11T22:41:03.644Z,3.22
2023-03-11T22:43:30.394Z,3.20
2023-03-11T22:45:57.271Z,3.21
2023-03-11T22:48:23.957Z,3.17
2023-03-11T22:50:50.668Z,2.78
2023-03-11T22:53:17.420Z,2.61
2023-03-11T22:55:44.646Z,1.94
2023-03-11T22:58:12.181Z,1.86
2023-03-11T23:00:38.977Z,1.80
2023-03-11T23:03:06.218Z,1.53
2023-03-11T23:05:40.717Z,1.41
2023-03-11T23:08:16.230Z,1.31
2023-03-11T23:10:47.271Z,1.20
2023-03-11T23:13:14.712Z,1.18
2023-03-11T23:15:43.502Z,1.21
2023-03-11T23:18:11.224Z,1.29
2023-03-11T23:20:40.299Z,1.16
2023-03-11T23:23:07.462Z,1.23
2023-03-11T23:25:35.022Z,1.19
2023-03-11T23:28:03.909Z,1.30
2023-03-11T23:30:31.155Z,1.45
2023-03-11T23:32:59.255Z,1.60
2023-03-11T23:35:26.019Z,1.55
2023-03-11T23:37:52.904Z,1.48
2023-03-11T23:40:19.824Z,1.31
2023-03-11T23:42:46.661Z,1.16
2023-03-11T23:45:13.415Z,1.03
2023-03-11T23:47:40.155Z,1.09
2023-03-11T23:50:07.327Z,1.16
2023-03-11T23:52:34.942Z,1.22
2023-03-11T23:55:01.848Z,1.26
2023-03-11T23:57:28.550Z,1.31
2023-03-11T23:59:55.197Z,1.38
